sensor_id;sensor_type;location;lat;lon;timestamp;temperature;humidity
5210;DHT22;2624;48.048;11.706;2024-01-16T00:01:29;-2.70;99.90
5210;DHT22;2624;48.048;11.706;2024-01-16T00:06:32;-2.60;99.90
5210;DHT22;2624;48.048;11.706;2024-01-16T00:11:34;-2.70;99.90
5210;DHT22;2624;48.048;11.706;2024-01-16T00:16:42;-2.70;99.90
5210;DHT22;2624;48.048;11.706;2024-01-16T00:21:45;-2.60;99.90
5210;DHT22;2624;48.048;11.706;2024-01-16T00:26:47;-2.50;99.90
5210;DHT22;2624;48.048;11.706;2024-01-16T00:31:50;-2.70;99.90
5210;DHT22;2624;48.048;11.706;2024-01-16T00:36:53;-2.80;99.90
5210;DHT22;2624;48.048;11.706;2024-01-16T00:41:55;-2.60;99.90
5210;DHT22;2624;48.048;11.706;2024-01-16T00:46:56;-2.70;99.90
5210;DHT22;2624;48.048;11.706;2024-01-16T00:51:59;-2.80;99.90
5210;DHT22;2624;48.048;11.706;2024-01-16T00:57:01;-2.80;99.90
5210;DHT22;2624;48.048;11.706;2024-01-16T01:02:03;-2.70;99.90
5210;DHT22;2624;48.048;11.706;2024-01-16T01:07:06;-2.70;99.90
5210;DHT22;2624;48.048;11.706;2024-01-16T01:12:08;-2.80;99.90
5210;DHT22;2624;48.048;11.706;2024-01-16T01:17:10;-2.90;99.90
5210;DHT22;2624;48.048;11.706;2024-01-16T01:22:13;-2.90;99.90
5210;DHT22;2624;48.048;11.706;2024-01-16T01:27:15;-2.90;99.90
5210;DHT22;2624;48.048;11.706;2024-01-16T01:32:17;-2.90;99.90
5210;DHT22;2624;48.048;11.706;2024-01-16T01:37:20;-3.00;99.90
5210;DHT22;2624;48.048;11.706;2024-01-16T01:42:22;-3.00;99.90
5210;DHT22;2624;48.048;11.706;2024-01-16T01:47:24;-2.70;99.90
5210;DHT22;2624;48.048;11.706;2024-01-16T01:52:27;-2.90;99.90
5210;DHT22;2624;48.048;11.706;2024-01-16T01:57:29;-2.80;99.90
5210;DHT22;2624;48.048;11.706;2024-01-16T02:02:31;-2.80;99.90
5210;DHT22;2624;48.048;11.706;2024-01-16T02:07:35;-2.90;99.90
5210;DHT22;2624;48.048;11.706;2024-01-16T02:12:37;-2.90;99.90
5210;DHT22;2624;48.048;11.706;2024-01-16T02:17:38;-3.00;99.90
5210;DHT22;2624;48.048;11.706;2024-01-16T02:22:45;-2.80;99.90
5210;DHT22;2624;48.048;11.706;2024-01-16T02:27:50;-2.90;99.90
5210;DHT22;2624;48.048;11.706;2024-01-16T02:32:53;-2.90;99.90
5210;DHT22;2624;48.048;11.706;2024-01-16T02:37:54;-3.00;99.90
5210;DHT22;2624;48.048;11.706;2024-01-16T02:42:57;-2.90;99.90
5210;DHT22;2624;48.048;11.706;2024-01-16T02:47:59;-3.00;99.90
5210;DHT22;2624;48.048;11.706;2024-01-16T02:53:01;-3.20;99.90
5210;DHT22;2624;48.048;11.706;2024-01-16T02:58:04;-3.30;99.90
5210;DHT22;2624;48.048;11.706;2024-01-16T03:03:08;-3.40;99.90
5210;DHT22;2624;48.048;11.706;2024-01-16T03:08:10;-3.50;99.90
5210;DHT22;2624;48.048;11.706;2024-01-16T03:13:13;-3.30;99.90
5210;DHT22;2624;48.048;11.706;2024-01-16T03:18:15;-3.50;99.90
5210;DHT22;2624;48.048;11.706;2024-01-16T03:23:17;-3.60;99.90
5210;DHT22;2624;48.048;11.706;2024-01-16T03:28:20;-3.60;99.90
5210;DHT22;2624;48.048;11.706;2024-01-16T03:33:22;-3.50;99.90
5210;DHT22;2624;48.048;11.706;2024-01-16T03:38:24;-3.50;99.90
5210;DHT22;2624;48.048;11.706;2024-01-16T03:43:27;-3.40;99.90
5210;DHT22;2624;48.048;11.706;2024-01-16T03:48:29;-3.40;99.90
5210;DHT22;2624;48.048;11.706;2024-01-16T03:53:30;-3.30;99.90
5210;DHT22;2624;48.048;11.706;2024-01-16T03:58:33;-3.30;99.90
5210;DHT22;2624;48.048;11.706;2024-01-16T04:03:35;-3.50;99.90
5210;DHT22;2624;48.048;11.706;2024-01-16T04:08:38;-3.40;99.90
5210;DHT22;2624;48.048;11.706;2024-01-16T04:13:41;-3.60;99.90
5210;DHT22;2624;48.048;11.706;2024-01-16T04:18:44;-3.90;99.90
5210;DHT22;2624;48.048;11.706;2024-01-16T04:23:45;-3.60;99.90
5210;DHT22;2624;48.048;11.706;2024-01-16T04:28:49;-3.70;99.90
5210;DHT22;2624;48.048;11.706;2024-01-16T04:33:51;-3.60;99.90
5210;DHT22;2624;48.048;11.706;2024-01-16T04:38:52;-3.70;99.90
5210;DHT22;2624;48.048;11.706;2024-01-16T04:43:55;-4.00;99.90
5210;DHT22;2624;48.048;11.706;2024-01-16T04:48:57;-3.90;99.90
5210;DHT22;2624;48.048;11.706;2024-01-16T04:53:59;-3.50;99.90
5210;DHT22;2624;48.048;11.706;2024-01-16T04:59:02;-3.30;99.90
5210;DHT22;2624;48.048;11.706;2024-01-16T05:04:04;-4.00;99.90
5210;DHT22;2624;48.048;11.706;2024-01-16T05:09:08;-4.30;99.90
5210;DHT22;2624;48.048;11.706;2024-01-16T05:14:12;-4.10;99.90
5210;DHT22;2624;48.048;11.706;2024-01-16T05:19:13;-4.20;99.90
5210;DHT22;2624;48.048;11.706;2024-01-16T05:24:15;-4.90;99.90
5210;DHT22;2624;48.048;11.706;2024-01-16T05:29:18;-4.90;99.90
5210;DHT22;2624;48.048;11.706;2024-01-16T05:34:20;-5.00;99.90
5210;DHT22;2624;48.048;11.706;2024-01-16T05:39:22;-5.30;99.90
5210;DHT22;2624;48.048;11.706;2024-01-16T05:44:25;-5.30;99.90
5210;DHT22;2624;48.048;11.706;2024-01-16T05:49:27;-5.30;99.90
5210;DHT22;2624;48.048;11.706;2024-01-16T05:54:28;-5.40;99.90
5210;DHT22;2624;48.048;11.706;2024-01-16T05:59:31;-5.60;99.90
5210;DHT22;2624;48.048;11.706;2024-01-16T06:04:33;-5.90;99.90
5210;DHT22;2624;48.048;11.706;2024-01-16T06:09:38;-5.60;99.90
5210;DHT22;2624;48.048;11.706;2024-01-16T06:14:41;-5.80;99.90
5210;DHT22;2624;48.048;11.706;2024-01-16T06:19:43;-6.10;99.90
5210;DHT22;2624;48.048;11.706;2024-01-16T06:24:45;-6.20;99.90
5210;DHT22;2624;48.048;11.706;2024-01-16T06:29:48;-6.20;99.90
5210;DHT22;2624;48.048;11.706;2024-01-16T06:34:51;-5.80;99.90
5210;DHT22;2624;48.048;11.706;2024-01-16T06:39:53;-5.80;99.90
5210;DHT22;2624;48.048;11.706;2024-01-16T06:44:57;-6.10;99.90
5210;DHT22;2624;48.048;11.706;2024-01-16T06:49:59;-6.10;99.90
5210;DHT22;2624;48.048;11.706;2024-01-16T06:55:00;-6.00;99.90
5210;DHT22;2624;48.048;11.706;2024-01-16T07:00:05;-6.00;99.90
5210;DHT22;2624;48.048;11.706;2024-01-16T07:05:08;-6.10;99.90
5210;DHT22;2624;48.048;11.706;2024-01-16T07:10:10;-5.60;99.90
5210;DHT22;2624;48.048;11.706;2024-01-16T07:15:19;-5.90;99.90
5210;DHT22;2624;48.048;11.706;2024-01-16T07:20:21;-5.80;99.90
5210;DHT22;2624;48.048;11.706;2024-01-16T07:25:23;-5.70;99.90
5210;DHT22;2624;48.048;11.706;2024-01-16T07:30:26;-5.80;99.90
5210;DHT22;2624;48.048;11.706;2024-01-16T07:35:28;-5.80;99.90
5210;DHT22;2624;48.048;11.706;2024-01-16T07:40:30;-5.70;99.90
5210;DHT22;2624;48.048;11.706;2024-01-16T07:45:33;-5.70;99.90
5210;DHT22;2624;48.048;11.706;2024-01-16T07:50:35;-5.60;99.90
5210;DHT22;2624;48.048;11.706;2024-01-16T07:55:37;-5.50;99.90
5210;DHT22;2624;48.048;11.706;2024-01-16T08:00:40;-5.30;99.90
5210;DHT22;2624;48.048;11.706;2024-01-16T08:05:42;-5.50;99.90
5210;DHT22;2624;48.048;11.706;2024-01-16T08:10:44;-5.30;99.90
5210;DHT22;2624;48.048;11.706;2024-01-16T08:15:47;-5.40;99.90
5210;DHT22;2624;48.048;11.706;2024-01-16T08:20:49;-5.30;99.90
5210;DHT22;2624;48.048;11.706;2024-01-16T08:25:51;-5.20;99.90
5210;DHT22;2624;48.048;11.706;2024-01-16T08:30:54;-5.00;99.90
5210;DHT22;2624;48.048;11.706;2024-01-16T08:35:56;-4.90;99.90
5210;DHT22;2624;48.048;11.706;2024-01-16T08:40:58;-4.50;99.90
5210;DHT22;2624;48.048;11.706;2024-01-16T08:46:01;-4.60;99.90
5210;DHT22;2624;48.048;11.706;2024-01-16T08:51:08;-4.40;99.90
5210;DHT22;2624;48.048;11.706;2024-01-16T08:56:10;-4.40;99.90
5210;DHT22;2624;48.048;11.706;2024-01-16T09:01:14;-4.30;99.90
5210;DHT22;2624;48.048;11.706;2024-01-16T09:06:15;-4.20;99.90
5210;DHT22;2624;48.048;11.706;2024-01-16T09:11:17;-4.30;99.90
5210;DHT22;2624;48.048;11.706;2024-01-16T09:16:20;-4.30;99.90
5210;DHT22;2624;48.048;11.706;2024-01-16T09:21:22;-4.10;99.90
5210;DHT22;2624;48.048;11.706;2024-01-16T09:26:24;-3.90;99.90
5210;DHT22;2624;48.048;11.706;2024-01-16T09:31:27;-3.80;99.90
5210;DHT22;2624;48.048;11.706;2024-01-16T09:36:28;-3.40;99.90
5210;DHT22;2624;48.048;11.706;2024-01-16T09:41:30;-3.20;99.90
5210;DHT22;2624;48.048;11.706;2024-01-16T09:46:37;-3.00;99.90
5210;DHT22;2624;48.048;11.706;2024-01-16T09:51:40;-2.80;99.90
5210;DHT22;2624;48.048;11.706;2024-01-16T09:56:44;-2.80;99.90
5210;DHT22;2624;48.048;11.706;2024-01-16T10:01:48;-2.70;99.90
5210;DHT22;2624;48.048;11.706;2024-01-16T10:06:51;-2.70;99.90
5210;DHT22;2624;48.048;11.706;2024-01-16T10:11:53;-2.70;99.90
5210;DHT22;2624;48.048;11.706;2024-01-16T10:17:00;-2.60;99.90
5210;DHT22;2624;48.048;11.706;2024-01-16T10:22:05;-2.60;99.90
5210;DHT22;2624;48.048;11.706;2024-01-16T10:27:07;-2.60;99.90
5210;DHT22;2624;48.048;11.706;2024-01-16T10:32:10;-2.40;99.90
5210;DHT22;2624;48.048;11.706;2024-01-16T10:37:12;-2.40;99.90
5210;DHT22;2624;48.048;11.706;2024-01-16T10:42:15;-2.30;99.90
5210;DHT22;2624;48.048;11.706;2024-01-16T10:47:18;-2.30;99.90
5210;DHT22;2624;48.048;11.706;2024-01-16T10:52:25;-2.10;99.90
5210;DHT22;2624;48.048;11.706;2024-01-16T10:57:30;-2.10;99.90
5210;DHT22;2624;48.048;11.706;2024-01-16T11:02:38;-2.10;99.90
5210;DHT22;2624;48.048;11.706;2024-01-16T11:07:42;-2.00;99.90
5210;DHT22;2624;48.048;11.706;2024-01-16T11:12:45;-1.80;99.90
5210;DHT22;2624;48.048;11.706;2024-01-16T11:17:49;-1.70;99.90
5210;DHT22;2624;48.048;11.706;2024-01-16T11:22:52;-1.80;99.90
5210;DHT22;2624;48.048;11.706;2024-01-16T11:28:08;-1.80;99.90
5210;DHT22;2624;48.048;11.706;2024-01-16T11:33:44;-1.80;99.90
5210;DHT22;2624;48.048;11.706;2024-01-16T11:38:46;-1.90;99.90
5210;DHT22;2624;48.048;11.706;2024-01-16T11:43:48;-1.80;99.90
5210;DHT22;2624;48.048;11.706;2024-01-16T11:49:02;-1.80;99.90
5210;DHT22;2624;48.048;11.706;2024-01-16T11:54:04;-1.70;99.90
5210;DHT22;2624;48.048;11.706;2024-01-16T11:59:26;-1.60;99.90
5210;DHT22;2624;48.048;11.706;2024-01-16T12:04:35;-1.60;99.90
5210;DHT22;2624;48.048;11.706;2024-01-16T12:09:37;-1.60;99.90
5210;DHT22;2624;48.048;11.706;2024-01-16T12:14:39;-1.60;99.90
5210;DHT22;2624;48.048;11.706;2024-01-16T12:19:42;-1.60;99.90
5210;DHT22;2624;48.048;11.706;2024-01-16T12:24:44;-1.60;99.90
5210;DHT22;2624;48.048;11.706;2024-01-16T12:29:45;-1.60;99.90
5210;DHT22;2624;48.048;11.706;2024-01-16T12:34:49;-1.50;99.90
5210;DHT22;2624;48.048;11.706;2024-01-16T12:39:51;-1.50;99.90
5210;DHT22;2624;48.048;11.706;2024-01-16T12:44:53;-1.40;99.90
5210;DHT22;2624;48.048;11.706;2024-01-16T12:49:56;-1.40;99.90
5210;DHT22;2624;48.048;11.706;2024-01-16T12:54:59;-1.40;99.90
5210;DHT22;2624;48.048;11.706;2024-01-16T13:00:01;-1.40;99.90
5210;DHT22;2624;48.048;11.706;2024-01-16T13:05:06;-1.40;99.90
5210;DHT22;2624;48.048;11.706;2024-01-16T13:10:09;-1.40;99.90
5210;DHT22;2624;48.048;11.706;2024-01-16T13:15:13;-1.40;99.90
5210;DHT22;2624;48.048;11.706;2024-01-16T13:20:18;-1.30;99.90
5210;DHT22;2624;48.048;11.706;2024-01-16T13:25:20;-1.20;99.90
5210;DHT22;2624;48.048;11.706;2024-01-16T13:30:22;-1.20;99.90
5210;DHT22;2624;48.048;11.706;2024-01-16T13:35:25;-1.20;99.90
5210;DHT22;2624;48.048;11.706;2024-01-16T13:40:27;-1.30;99.90
5210;DHT22;2624;48.048;11.706;2024-01-16T13:45:29;-1.30;99.90
5210;DHT22;2624;48.048;11.706;2024-01-16T13:50:33;-1.30;99.90
5210;DHT22;2624;48.048;11.706;2024-01-16T13:55:35;-1.20;99.90
5210;DHT22;2624;48.048;11.706;2024-01-16T14:00:37;-1.20;99.90
5210;DHT22;2624;48.048;11.706;2024-01-16T14:05:40;-1.20;99.90
5210;DHT22;2624;48.048;11.706;2024-01-16T14:10:43;-1.30;99.90
5210;DHT22;2624;48.048;11.706;2024-01-16T14:15:45;-1.30;99.90
5210;DHT22;2624;48.048;11.706;2024-01-16T14:20:48;-1.20;99.90
5210;DHT22;2624;48.048;11.706;2024-01-16T14:25:50;-1.30;99.90
5210;DHT22;2624;48.048;11.706;2024-01-16T14:30:51;-1.30;99.90
5210;DHT22;2624;48.048;11.706;2024-01-16T14:35:54;-1.30;99.90
5210;DHT22;2624;48.048;11.706;2024-01-16T14:40:56;-1.40;99.90
5210;DHT22;2624;48.048;11.706;2024-01-16T14:45:58;-1.40;99.90
5210;DHT22;2624;48.048;11.706;2024-01-16T14:51:01;-1.40;99.90
5210;DHT22;2624;48.048;11.706;2024-01-16T14:56:03;-1.30;99.90
5210;DHT22;2624;48.048;11.706;2024-01-16T15:01:05;-1.40;99.90
5210;DHT22;2624;48.048;11.706;2024-01-16T15:06:08;-1.40;99.90
5210;DHT22;2624;48.048;11.706;2024-01-16T15:11:13;-1.30;99.90
5210;DHT22;2624;48.048;11.706;2024-01-16T15:16:15;-1.30;99.90
5210;DHT22;2624;48.048;11.706;2024-01-16T15:21:20;-1.30;99.90
5210;DHT22;2624;48.048;11.706;2024-01-16T15:26:21;-1.30;99.90
5210;DHT22;2624;48.048;11.706;2024-01-16T15:31:23;-1.50;99.90
5210;DHT22;2624;48.048;11.706;2024-01-16T15:36:26;-1.50;99.90
5210;DHT22;2624;48.048;11.706;2024-01-16T15:41:28;-1.70;99.90
5210;DHT22;2624;48.048;11.706;2024-01-16T15:46:29;-1.70;99.90
5210;DHT22;2624;48.048;11.706;2024-01-16T15:51:33;-1.70;99.90
5210;DHT22;2624;48.048;11.706;2024-01-16T15:56:34;-1.80;99.90
5210;DHT22;2624;48.048;11.706;2024-01-16T16:01:37;-1.80;99.90
5210;DHT22;2624;48.048;11.706;2024-01-16T16:06:40;-1.80;99.90
5210;DHT22;2624;48.048;11.706;2024-01-16T16:11:43;-1.60;99.90
5210;DHT22;2624;48.048;11.706;2024-01-16T16:16:48;-1.60;99.90
5210;DHT22;2624;48.048;11.706;2024-01-16T16:21:51;-1.60;99.90
5210;DHT22;2624;48.048;11.706;2024-01-16T16:26:53;-1.90;99.90
5210;DHT22;2624;48.048;11.706;2024-01-16T16:31:55;-2.20;99.90
5210;DHT22;2624;48.048;11.706;2024-01-16T16:37:00;-2.20;99.90
5210;DHT22;2624;48.048;11.706;2024-01-16T16:42:01;-2.30;99.90
5210;DHT22;2624;48.048;11.706;2024-01-16T16:47:03;-2.10;99.90
5210;DHT22;2624;48.048;11.706;2024-01-16T16:52:06;-2.30;99.90
5210;DHT22;2624;48.048;11.706;2024-01-16T16:57:08;-2.60;99.90
5210;DHT22;2624;48.048;11.706;2024-01-16T17:02:10;-2.70;99.90
5210;DHT22;2624;48.048;11.706;2024-01-16T17:07:13;-2.80;99.90
5210;DHT22;2624;48.048;11.706;2024-01-16T17:12:15;-2.90;99.90
5210;DHT22;2624;48.048;11.706;2024-01-16T17:17:17;-2.80;99.90
5210;DHT22;2624;48.048;11.706;2024-01-16T17:22:20;-2.90;99.90
5210;DHT22;2624;48.048;11.706;2024-01-16T17:27:22;-2.90;99.90
5210;DHT22;2624;48.048;11.706;2024-01-16T17:32:27;-2.80;99.90
5210;DHT22;2624;48.048;11.706;2024-01-16T17:37:30;-2.20;99.90
5210;DHT22;2624;48.048;11.706;2024-01-16T17:42:32;-2.30;99.90
5210;DHT22;2624;48.048;11.706;2024-01-16T17:47:34;-3.10;99.90
5210;DHT22;2624;48.048;11.706;2024-01-16T17:52:37;-3.30;99.90
5210;DHT22;2624;48.048;11.706;2024-01-16T17:57:39;-3.40;99.90
5210;DHT22;2624;48.048;11.706;2024-01-16T18:02:42;-3.60;99.90
5210;DHT22;2624;48.048;11.706;2024-01-16T18:07:45;-3.50;99.90
5210;DHT22;2624;48.048;11.706;2024-01-16T18:12:47;-3.70;99.90
5210;DHT22;2624;48.048;11.706;2024-01-16T18:17:48;-3.70;99.90
5210;DHT22;2624;48.048;11.706;2024-01-16T18:22:52;-3.80;99.90
5210;DHT22;2624;48.048;11.706;2024-01-16T18:27:56;-3.90;99.90
5210;DHT22;2624;48.048;11.706;2024-01-16T18:32:58;-3.90;99.90
5210;DHT22;2624;48.048;11.706;2024-01-16T18:38:03;-4.10;99.90
5210;DHT22;2624;48.048;11.706;2024-01-16T18:43:08;-4.30;99.90
5210;DHT22;2624;48.048;11.706;2024-01-16T18:48:09;-4.30;99.90
5210;DHT22;2624;48.048;11.706;2024-01-16T18:53:12;-4.30;99.90
5210;DHT22;2624;48.048;11.706;2024-01-16T18:58:14;-4.30;99.90
5210;DHT22;2624;48.048;11.706;2024-01-16T19:03:17;-4.40;99.90
5210;DHT22;2624;48.048;11.706;2024-01-16T19:08:20;-4.40;99.90
5210;DHT22;2624;48.048;11.706;2024-01-16T19:13:24;-4.30;99.90
5210;DHT22;2624;48.048;11.706;2024-01-16T19:18:26;-4.40;99.90
5210;DHT22;2624;48.048;11.706;2024-01-16T19:23:29;-4.40;99.90
5210;DHT22;2624;48.048;11.706;2024-01-16T19:28:31;-4.50;99.90
5210;DHT22;2624;48.048;11.706;2024-01-16T19:33:33;-4.60;99.90
5210;DHT22;2624;48.048;11.706;2024-01-16T19:38:36;-4.70;99.90
5210;DHT22;2624;48.048;11.706;2024-01-16T19:43:38;-4.80;99.90
5210;DHT22;2624;48.048;11.706;2024-01-16T19:48:40;-5.00;99.90
5210;DHT22;2624;48.048;11.706;2024-01-16T19:53:43;-5.00;99.90
5210;DHT22;2624;48.048;11.706;2024-01-16T19:58:45;-4.90;99.90
5210;DHT22;2624;48.048;11.706;2024-01-16T20:03:50;-5.00;99.90
5210;DHT22;2624;48.048;11.706;2024-01-16T20:08:53;-5.00;99.90
5210;DHT22;2624;48.048;11.706;2024-01-16T20:13:59;-5.10;99.90
5210;DHT22;2624;48.048;11.706;2024-01-16T20:19:01;-5.20;99.90
5210;DHT22;2624;48.048;11.706;2024-01-16T20:24:04;-5.20;99.90
5210;DHT22;2624;48.048;11.706;2024-01-16T20:29:07;-5.30;99.90
5210;DHT22;2624;48.048;11.706;2024-01-16T20:34:10;-5.30;99.90
5210;DHT22;2624;48.048;11.706;2024-01-16T20:39:15;-5.40;99.90
5210;DHT22;2624;48.048;11.706;2024-01-16T20:44:17;-5.50;99.90
5210;DHT22;2624;48.048;11.706;2024-01-16T20:49:21;-5.60;99.90
5210;DHT22;2624;48.048;11.706;2024-01-16T20:54:24;-5.60;99.90
5210;DHT22;2624;48.048;11.706;2024-01-16T20:59:25;-5.60;99.90
5210;DHT22;2624;48.048;11.706;2024-01-16T21:04:27;-5.60;99.90
5210;DHT22;2624;48.048;11.706;2024-01-16T21:09:30;-5.60;99.90
5210;DHT22;2624;48.048;11.706;2024-01-16T21:14:33;-5.70;99.90
5210;DHT22;2624;48.048;11.706;2024-01-16T21:19:35;-5.70;99.90
5210;DHT22;2624;48.048;11.706;2024-01-16T21:24:38;-5.80;99.90
5210;DHT22;2624;48.048;11.706;2024-01-16T21:29:39;-5.90;99.90
5210;DHT22;2624;48.048;11.706;2024-01-16T21:34:45;-5.90;99.90
5210;DHT22;2624;48.048;11.706;2024-01-16T21:39:49;-6.00;99.90
5210;DHT22;2624;48.048;11.706;2024-01-16T21:44:51;-6.00;99.90
5210;DHT22;2624;48.048;11.706;2024-01-16T21:49:53;-6.00;99.90
5210;DHT22;2624;48.048;11.706;2024-01-16T21:54:57;-6.10;99.90
5210;DHT22;2624;48.048;11.706;2024-01-16T22:00:00;-6.00;99.90
5210;DHT22;2624;48.048;11.706;2024-01-16T22:05:03;-5.90;99.90
5210;DHT22;2624;48.048;11.706;2024-01-16T22:10:07;-6.00;99.90
5210;DHT22;2624;48.048;11.706;2024-01-16T22:15:09;-6.10;99.90
5210;DHT22;2624;48.048;11.706;2024-01-16T22:20:12;-6.10;99.90
5210;DHT22;2624;48.048;11.706;2024-01-16T22:25:16;-6.00;99.90
5210;DHT22;2624;48.048;11.706;2024-01-16T22:30:18;-6.10;99.90
5210;DHT22;2624;48.048;11.706;2024-01-16T22:35:19;-6.20;99.90
5210;DHT22;2624;48.048;11.706;2024-01-16T22:40:23;-6.20;99.90
5210;DHT22;2624;48.048;11.706;2024-01-16T22:45:24;-6.30;99.90
5210;DHT22;2624;48.048;11.706;2024-01-16T22:50:26;-6.20;99.90
5210;DHT22;2624;48.048;11.706;2024-01-16T22:55:29;-6.30;99.90
5210;DHT22;2624;48.048;11.706;2024-01-16T23:00:31;-6.30;99.90
5210;DHT22;2624;48.048;11.706;2024-01-16T23:05:39;-6.30;99.90
5210;DHT22;2624;48.048;11.706;2024-01-16T23:10:44;-6.30;99.90
5210;DHT22;2624;48.048;11.706;2024-01-16T23:15:46;-6.30;99.90
5210;DHT22;2624;48.048;11.706;2024-01-16T23:20:48;-6.40;99.90
5210;DHT22;2624;48.048;11.706;2024-01-16T23:25:51;-6.50;99.90
5210;DHT22;2624;48.048;11.706;2024-01-16T23:30:53;-6.30;99.90
5210;DHT22;2624;48.048;11.706;2024-01-16T23:35:55;-6.40;99.90
5210;DHT22;2624;48.048;11.706;2024-01-16T23:40:59;-6.30;99.90
5210;DHT22;2624;48.048;11.706;2024-01-16T23:46:01;-6.40;99.90
5210;DHT22;2624;48.048;11.706;2024-01-16T23:51:03;-6.30;99.90
5210;DHT22;2624;48.048;11.706;2024-01-16T23:56:06;-6.20;99.90
